Time;durP1;ratioP1;P1;durP2;ratioP2;P2;SDS_P1;SDS_P2;PMS_P1;PMS_P2;Temp;Humidity;BMP_temperature;BMP_pressure;BME280_temperature;BME280_humidity;BME280_pressure;Samples;Min_cycle;Max_cycle;Signal;HPM_P1;HPM_P2
2022/03/14 00:02:21;;;;;;;0.00;0.00;;;;;;;;;;5058419;28;20199;-77
2022/03/14 00:04:49;;;;;;;0.00;0.00;;;;;;;;;;5062379;28;20203;-76
2022/03/14 00:07:17;;;;;;;0.00;0.00;;;;;;;;;;5062135;28;20202;-77
2022/03/14 00:09:46;;;;;;;0.10;0.10;;;;;;;;;;5070633;28;20214;-77
2022/03/14 00:12:19;;;;;;;0.00;0.00;;;;;;;;;;5068208;28;20199;-77
2022/03/14 00:14:47;;;;;;;0.00;0.00;;;;;;;;;;5066080;28;20609;-77
2022/03/14 00:17:15;;;;;;;0.20;0.20;;;;;;;;;;5070367;28;20605;-78
2022/03/14 00:19:42;;;;;;;0.00;0.00;;;;;;;;;;5074349;28;21045;-76
2022/03/14 00:22:10;;;;;;;0.10;0.10;;;;;;;;;;5068772;28;20195;-77
2022/03/14 00:24:37;;;;;;;0.10;0.10;;;;;;;;;;5065461;28;20203;-77
2022/03/14 00:27:06;;;;;;;3.03;1.03;;;;;;;;;;5053964;28;20191;-78
2022/03/14 00:29:35;;;;;;;0.73;0.70;;;;;;;;;;5053931;28;20203;-77
2022/03/14 00:32:02;;;;;;;0.27;0.27;;;;;;;;;;5070208;28;20731;-77
2022/03/14 00:34:30;;;;;;;0.00;0.00;;;;;;;;;;5071759;28;20242;-78
2022/03/14 00:36:57;;;;;;;1.07;1.07;;;;;;;;;;5064279;28;20203;-76
2022/03/14 00:39:25;;;;;;;0.00;0.00;;;;;;;;;;5060070;28;20202;-77
2022/03/14 00:41:52;;;;;;;0.30;0.20;;;;;;;;;;5072364;28;20282;-77
2022/03/14 00:44:20;;;;;;;0.47;0.47;;;;;;;;;;5063616;28;20231;-78
2022/03/14 00:46:49;;;;;;;1.17;1.07;;;;;;;;;;5058942;28;20232;-77
2022/03/14 00:49:16;;;;;;;0.53;0.27;;;;;;;;;;5057349;28;20201;-77
2022/03/14 00:51:43;;;;;;;0.97;0.97;;;;;;;;;;5075743;28;20206;-76
2022/03/14 00:54:11;;;;;;;0.70;0.70;;;;;;;;;;5075611;28;20222;-78
2022/03/14 00:56:38;;;;;;;1.17;1.00;;;;;;;;;;5072552;28;20206;-78
2022/03/14 00:59:05;;;;;;;1.57;1.47;;;;;;;;;;5062885;28;20203;-78
2022/03/14 01:01:33;;;;;;;0.60;0.60;;;;;;;;;;5068794;28;20682;-78
2022/03/14 01:04:02;;;;;;;0.30;0.30;;;;;;;;;;5073969;28;20234;-78
2022/03/14 01:06:30;;;;;;;0.83;0.83;;;;;;;;;;5054965;28;20661;-78
2022/03/14 01:08:57;;;;;;;1.17;1.07;;;;;;;;;;5056123;28;20252;-78
2022/03/14 01:11:25;;;;;;;1.37;1.23;;;;;;;;;;5072126;28;20195;-78
2022/03/14 01:13:52;;;;;;;0.50;0.50;;;;;;;;;;5073268;28;20229;-78
2022/03/14 01:16:19;;;;;;;0.97;0.87;;;;;;;;;;5072116;28;20198;-79
2022/03/14 01:18:47;;;;;;;0.60;0.60;;;;;;;;;;5072450;28;20194;-77
2022/03/14 01:21:15;;;;;;;1.00;0.87;;;;;;;;;;5072951;28;20191;-78
2022/03/14 01:23:43;;;;;;;0.80;0.37;;;;;;;;;;5064220;28;20200;-77
2022/03/14 01:26:10;;;;;;;1.00;0.90;;;;;;;;;;5052559;28;20286;-78
2022/03/14 01:28:37;;;;;;;0.27;0.27;;;;;;;;;;5068166;28;20209;-78
2022/03/14 01:31:05;;;;;;;2.33;2.13;;;;;;;;;;5072908;28;20198;-77
2022/03/14 01:33:32;;;;;;;0.57;0.33;;;;;;;;;;5072816;28;20209;-77
2022/03/14 01:36:00;;;;;;;1.33;1.23;;;;;;;;;;5063027;28;20207;-77
2022/03/14 01:38:28;;;;;;;0.80;0.80;;;;;;;;;;5052065;28;20199;-78
2022/03/14 01:40:56;;;;;;;1.20;0.80;;;;;;;;;;5058545;28;20260;-77
2022/03/14 01:43:26;;;;;;;1.57;1.10;;;;;;;;;;5070490;28;20203;-78
2022/03/14 01:45:56;;;;;;;1.87;1.73;;;;;;;;;;5052709;28;20200;-78
2022/03/14 01:48:24;;;;;;;0.07;0.07;;;;;;;;;;5051994;28;20196;-78
2022/03/14 01:50:51;;;;;;;1.33;1.23;;;;;;;;;;5062534;28;20193;-77
2022/03/14 01:53:19;;;;;;;1.33;1.23;;;;;;;;;;5071014;28;20569;-78
2022/03/14 01:55:49;;;;;;;0.50;0.50;;;;;;;;;;5075304;28;20199;-78
2022/03/14 01:58:17;;;;;;;1.87;1.13;;;;;;;;;;5071990;28;20286;-78
2022/03/14 02:00:45;;;;;;;1.40;1.10;;;;;;;;;;5055143;28;20191;-78
2022/03/14 02:03:12;;;;;;;1.87;1.20;;;;;;;;;;5068112;28;20530;-78
2022/03/14 02:05:40;;;;;;;1.47;1.37;;;;;;;;;;5075377;28;20195;-77
2022/03/14 02:08:08;;;;;;;1.73;1.63;;;;;;;;;;5071240;28;20290;-79
2022/03/14 02:10:36;;;;;;;2.20;2.10;;;;;;;;;;5071038;28;20316;-78
2022/03/14 02:13:09;;;;;;;0.70;0.70;;;;;;;;;;5072035;28;20203;-76
2022/03/14 02:15:37;;;;;;;0.80;0.70;;;;;;;;;;5067716;28;20328;-77
2022/03/14 02:18:04;;;;;;;2.57;1.57;;;;;;;;;;5069792;28;20284;-77
2022/03/14 02:20:33;;;;;;;2.57;2.13;;;;;;;;;;5069949;28;20205;-75
2022/03/14 02:23:00;;;;;;;0.70;0.70;;;;;;;;;;5051633;28;20222;-77
2022/03/14 02:25:28;;;;;;;0.40;0.40;;;;;;;;;;5052561;28;20564;-78
2022/03/14 02:27:55;;;;;;;1.10;0.53;;;;;;;;;;5052003;28;20200;-78
2022/03/14 02:30:23;;;;;;;0.60;0.60;;;;;;;;;;5051740;28;20628;-75
2022/03/14 02:32:51;;;;;;;0.87;0.83;;;;;;;;;;5067729;28;20202;-78
2022/03/14 02:35:18;;;;;;;0.20;0.20;;;;;;;;;;5059751;28;20409;-78
2022/03/14 02:37:47;;;;;;;0.23;0.23;;;;;;;;;;5051592;28;20203;-79
2022/03/14 02:40:14;;;;;;;1.10;0.90;;;;;;;;;;5070994;28;20198;-78
2022/03/14 02:42:42;;;;;;;0.13;0.13;;;;;;;;;;5051313;28;20203;-79
2022/03/14 02:45:10;;;;;;;0.00;0.00;;;;;;;;;;5051462;28;20654;-78
2022/03/14 02:47:38;;;;;;;0.93;0.93;;;;;;;;;;5051442;28;20207;-77
2022/03/14 02:50:06;;;;;;;0.03;0.03;;;;;;;;;;5051153;28;20242;-78
2022/03/14 02:52:33;;;;;;;0.17;0.17;;;;;;;;;;5056663;28;20209;-76
2022/03/14 02:55:02;;;;;;;0.43;0.43;;;;;;;;;;5071389;28;20226;-76
2022/03/14 02:57:31;;;;;;;0.00;0.00;;;;;;;;;;5071398;28;20656;-78
2022/03/14 02:59:58;;;;;;;0.10;0.10;;;;;;;;;;5071639;28;20230;-77
2022/03/14 03:02:26;;;;;;;0.50;0.50;;;;;;;;;;5069328;28;20199;-78
2022/03/14 03:04:55;;;;;;;0.87;0.87;;;;;;;;;;5074128;28;20234;-78
2022/03/14 03:07:22;;;;;;;0.00;0.00;;;;;;;;;;5060050;28;20199;-77
2022/03/14 03:09:50;;;;;;;0.00;0.00;;;;;;;;;;5070544;28;20203;-77
2022/03/14 03:12:19;;;;;;;0.40;0.40;;;;;;;;;;5055422;28;20207;-77
2022/03/14 03:14:49;;;;;;;0.00;0.00;;;;;;;;;;5066173;28;20299;-77
2022/03/14 03:17:16;;;;;;;0.10;0.10;;;;;;;;;;5069141;28;20199;-78
2022/03/14 03:19:44;;;;;;;0.00;0.00;;;;;;;;;;5071089;28;20719;-77
2022/03/14 03:22:11;;;;;;;0.00;0.00;;;;;;;;;;5069759;28;20195;-78
2022/03/14 03:24:38;;;;;;;0.40;0.40;;;;;;;;;;5070562;28;20279;-78
2022/03/14 03:27:06;;;;;;;0.00;0.00;;;;;;;;;;5069975;28;20198;-76
2022/03/14 03:29:34;;;;;;;0.00;0.00;;;;;;;;;;5071058;28;20202;-78
2022/03/14 03:32:02;;;;;;;0.00;0.00;;;;;;;;;;5071345;28;20199;-77
2022/03/14 03:34:29;;;;;;;1.10;0.53;;;;;;;;;;5059298;28;20734;-74
2022/03/14 03:36:56;;;;;;;0.77;0.57;;;;;;;;;;5070823;28;20187;-76
2022/03/14 03:39:24;;;;;;;0.60;0.60;;;;;;;;;;5069574;28;20194;-75
2022/03/14 03:41:51;;;;;;;0.30;0.30;;;;;;;;;;5051207;28;20210;-78
2022/03/14 03:44:18;;;;;;;0.40;0.40;;;;;;;;;;5049637;28;20238;-77
2022/03/14 03:46:47;;;;;;;0.20;0.20;;;;;;;;;;5050601;28;20206;-76
2022/03/14 03:49:15;;;;;;;0.40;0.40;;;;;;;;;;5051486;28;20283;-77
2022/03/14 03:51:42;;;;;;;0.00;0.00;;;;;;;;;;5052258;28;20200;-77
2022/03/14 03:54:09;;;;;;;3.83;1.07;;;;;;;;;;5052779;28;20200;-78
2022/03/14 03:56:38;;;;;;;0.20;0.20;;;;;;;;;;5054227;28;20216;-77
2022/03/14 03:59:05;;;;;;;0.87;0.87;;;;;;;;;;5062693;28;20710;-76
2022/03/14 04:01:33;;;;;;;2.27;1.10;;;;;;;;;;5067478;28;20524;-77
2022/03/14 04:04:02;;;;;;;0.00;0.00;;;;;;;;;;5072259;28;20207;-78
2022/03/14 04:06:30;;;;;;;2.47;2.00;;;;;;;;;;5071986;28;20199;-77
2022/03/14 04:09:00;;;;;;;1.33;0.93;;;;;;;;;;5070706;28;20191;-77
2022/03/14 04:11:28;;;;;;;2.57;0.43;;;;;;;;;;5069550;28;20203;-77
2022/03/14 04:13:58;;;;;;;1.40;1.30;;;;;;;;;;5063280;28;20207;-77
2022/03/14 04:16:26;;;;;;;1.67;1.57;;;;;;;;;;5070191;28;20726;-75
2022/03/14 04:18:53;;;;;;;0.10;0.10;;;;;;;;;;5069176;28;20286;-76
2022/03/14 04:21:23;;;;;;;0.40;0.40;;;;;;;;;;5070751;28;20195;-77
2022/03/14 04:23:50;;;;;;;0.23;0.23;;;;;;;;;;5074181;28;20287;-77
2022/03/14 04:26:18;;;;;;;0.60;0.60;;;;;;;;;;5074245;28;20572;-76
2022/03/14 04:28:45;;;;;;;0.33;0.33;;;;;;;;;;5062769;28;20208;-77
2022/03/14 04:31:12;;;;;;;1.33;1.30;;;;;;;;;;5054709;28;20299;-77
2022/03/14 04:33:40;;;;;;;2.00;1.03;;;;;;;;;;5054648;28;20200;-78
2022/03/14 04:36:07;;;;;;;0.10;0.10;;;;;;;;;;5062470;28;20226;-77
2022/03/14 04:38:36;;;;;;;0.67;0.67;;;;;;;;;;5072281;28;20191;-77
2022/03/14 04:41:03;;;;;;;1.63;1.53;;;;;;;;;;5073706;28;20207;-76
2022/03/14 04:43:31;;;;;;;0.00;0.00;;;;;;;;;;5073578;28;20198;-77
2022/03/14 04:45:58;;;;;;;0.67;0.40;;;;;;;;;;5073975;28;20199;-77
2022/03/14 04:48:26;;;;;;;0.87;0.87;;;;;;;;;;5068726;28;20205;-77
2022/03/14 04:50:53;;;;;;;0.00;0.00;;;;;;;;;;5073875;28;20591;-78
2022/03/14 04:53:20;;;;;;;1.03;0.93;;;;;;;;;;5072716;28;20202;-78
2022/03/14 04:55:50;;;;;;;0.87;0.87;;;;;;;;;;5073561;28;20229;-77
2022/03/14 04:58:18;;;;;;;1.00;1.00;;;;;;;;;;5073322;28;20191;-77
2022/03/14 05:00:45;;;;;;;0.00;0.00;;;;;;;;;;5072034;28;20215;-77
2022/03/14 05:03:13;;;;;;;1.47;1.33;;;;;;;;;;5070340;28;20213;-76
2022/03/14 05:05:41;;;;;;;1.73;0.73;;;;;;;;;;5063758;28;20290;-77
2022/03/14 05:08:08;;;;;;;0.90;0.90;;;;;;;;;;5073043;28;20210;-77
2022/03/14 05:10:36;;;;;;;1.17;0.30;;;;;;;;;;5067892;28;20644;-76
2022/03/14 05:13:05;;;;;;;1.40;0.80;;;;;;;;;;5062120;28;20212;-76
2022/03/14 05:15:33;;;;;;;0.73;0.50;;;;;;;;;;5052806;28;20242;-75
2022/03/14 05:18:01;;;;;;;0.40;0.40;;;;;;;;;;5053345;28;20246;-76
2022/03/14 05:20:28;;;;;;;0.00;0.00;;;;;;;;;;5070572;28;20209;-78
2022/03/14 05:22:56;;;;;;;0.23;0.23;;;;;;;;;;5064262;28;20202;-77
2022/03/14 05:25:24;;;;;;;0.13;0.13;;;;;;;;;;5070263;28;20760;-77
2022/03/14 05:27:54;;;;;;;2.83;1.07;;;;;;;;;;5055438;28;20203;-77
2022/03/14 05:30:23;;;;;;;2.30;1.17;;;;;;;;;;5071797;28;20213;-73
2022/03/14 05:32:50;;;;;;;0.53;0.53;;;;;;;;;;5064180;28;20287;-78
2022/03/14 05:35:18;;;;;;;0.30;0.30;;;;;;;;;;5062635;28;20227;-77
2022/03/14 05:37:46;;;;;;;0.10;0.10;;;;;;;;;;5071561;28;20195;-77
2022/03/14 05:40:15;;;;;;;0.73;0.73;;;;;;;;;;5056172;28;20206;-77
2022/03/14 05:42:43;;;;;;;0.20;0.20;;;;;;;;;;5063213;28;20729;-76
2022/03/14 05:45:12;;;;;;;0.53;0.53;;;;;;;;;;5072635;28;20633;-77
2022/03/14 05:47:41;;;;;;;0.40;0.40;;;;;;;;;;5055077;28;20204;-77
2022/03/14 05:50:09;;;;;;;1.97;1.03;;;;;;;;;;5052162;28;20556;-77
2022/03/14 05:52:36;;;;;;;0.20;0.20;;;;;;;;;;5055309;28;20203;-77
2022/03/14 05:55:05;;;;;;;1.47;0.43;;;;;;;;;;5055271;28;20232;-77
2022/03/14 05:57:33;;;;;;;0.50;0.50;;;;;;;;;;5056809;28;20199;-78
2022/03/14 06:00:00;;;;;;;0.00;0.00;;;;;;;;;;5072491;28;20198;-77
2022/03/14 06:02:28;;;;;;;0.23;0.23;;;;;;;;;;5068641;28;20205;-78
2022/03/14 06:04:57;;;;;;;0.10;0.10;;;;;;;;;;5068454;28;20208;-77
2022/03/14 06:07:25;;;;;;;0.47;0.47;;;;;;;;;;5052233;28;20204;-77
2022/03/14 06:09:52;;;;;;;0.83;0.83;;;;;;;;;;5052126;28;20199;-78
2022/03/14 06:12:30;;;;;;;0.47;0.40;;;;;;;;;;5052855;28;20261;-77
2022/03/14 06:14:58;;;;;;;0.10;0.10;;;;;;;;;;5070385;28;20285;-77
2022/03/14 06:17:25;;;;;;;0.10;0.10;;;;;;;;;;5051716;28;20212;-77
2022/03/14 06:19:53;;;;;;;0.57;0.57;;;;;;;;;;5067500;28;20289;-77
2022/03/14 06:22:22;;;;;;;0.93;0.93;;;;;;;;;;5071803;28;20194;-77
2022/03/14 06:24:50;;;;;;;0.83;0.83;;;;;;;;;;5071858;28;20230;-77
2022/03/14 06:27:18;;;;;;;0.33;0.23;;;;;;;;;;5071753;28;20199;-77
2022/03/14 06:29:46;;;;;;;0.03;0.03;;;;;;;;;;5060855;28;20196;-76
2022/03/14 06:32:13;;;;;;;0.97;0.90;;;;;;;;;;5050943;28;20207;-77
2022/03/14 06:34:41;;;;;;;2.77;1.50;;;;;;;;;;5068351;28;20571;-77
2022/03/14 06:37:09;;;;;;;1.17;0.70;;;;;;;;;;5071788;28;20227;-78
2022/03/14 06:39:38;;;;;;;0.10;0.10;;;;;;;;;;5070612;28;20209;-76
2022/03/14 06:42:09;;;;;;;2.00;1.40;;;;;;;;;;5071528;28;20318;-75
2022/03/14 06:44:38;;;;;;;0.20;0.20;;;;;;;;;;5061016;28;20231;-76
2022/03/14 06:47:06;;;;;;;0.87;0.87;;;;;;;;;;5052104;28;20668;-77
2022/03/14 06:49:34;;;;;;;0.80;0.53;;;;;;;;;;5052360;28;20216;-78
2022/03/14 06:52:01;;;;;;;1.23;1.13;;;;;;;;;;5061567;28;20575;-77
2022/03/14 06:54:29;;;;;;;5.00;0.77;;;;;;;;;;5070370;28;20199;-78
2022/03/14 06:56:58;;;;;;;0.73;0.73;;;;;;;;;;5069922;28;20296;-77
2022/03/14 06:59:25;;;;;;;0.20;0.20;;;;;;;;;;5071312;28;20675;-77
2022/03/14 07:01:52;;;;;;;1.40;0.83;;;;;;;;;;5069744;28;20199;-78
2022/03/14 07:04:20;;;;;;;0.10;0.10;;;;;;;;;;5068540;28;20547;-78
2022/03/14 07:06:47;;;;;;;0.37;0.37;;;;;;;;;;5071540;28;20201;-78
2022/03/14 07:09:15;;;;;;;0.33;0.33;;;;;;;;;;5070393;28;20600;-75
2022/03/14 07:11:42;;;;;;;3.27;1.60;;;;;;;;;;5071565;28;20206;-78
2022/03/14 07:14:11;;;;;;;0.47;0.47;;;;;;;;;;5058357;28;20199;-78
2022/03/14 07:16:38;;;;;;;1.13;0.93;;;;;;;;;;5051505;28;20238;-78
2022/03/14 07:19:06;;;;;;;0.00;0.00;;;;;;;;;;5051193;28;20195;-77
2022/03/14 07:21:34;;;;;;;1.27;1.23;;;;;;;;;;5051525;28;20203;-77
2022/03/14 07:24:01;;;;;;;1.30;1.10;;;;;;;;;;5050981;28;20204;-78
2022/03/14 07:26:28;;;;;;;0.30;0.17;;;;;;;;;;5051340;28;20200;-78
2022/03/14 07:28:56;;;;;;;1.27;1.07;;;;;;;;;;5051308;28;20257;-77
2022/03/14 07:31:25;;;;;;;0.63;0.63;;;;;;;;;;5066761;28;20218;-75
2022/03/14 07:33:53;;;;;;;0.57;0.57;;;;;;;;;;5069093;28;20640;-78
2022/03/14 07:36:21;;;;;;;0.23;0.23;;;;;;;;;;5056396;28;20607;-71
2022/03/14 07:38:48;;;;;;;0.83;0.83;;;;;;;;;;5052457;28;20210;-78
2022/03/14 07:41:15;;;;;;;1.17;0.93;;;;;;;;;;5067454;28;20202;-78
2022/03/14 07:43:43;;;;;;;0.17;0.17;;;;;;;;;;5060493;28;20213;-76
2022/03/14 07:46:10;;;;;;;0.83;0.67;;;;;;;;;;5063533;28;20226;-78
2022/03/14 07:48:39;;;;;;;0.70;0.70;;;;;;;;;;5071262;28;20290;-79
2022/03/14 07:51:08;;;;;;;1.90;1.27;;;;;;;;;;5075173;28;20195;-79
2022/03/14 07:53:36;;;;;;;2.50;1.87;;;;;;;;;;5069904;28;20222;-78
2022/03/14 07:56:03;;;;;;;0.47;0.47;;;;;;;;;;5072097;28;20242;-78
2022/03/14 07:58:30;;;;;;;1.20;0.70;;;;;;;;;;5075321;28;20198;-77
2022/03/14 08:00:58;;;;;;;2.73;1.57;;;;;;;;;;5074926;28;20207;-77
2022/03/14 08:03:25;;;;;;;1.63;1.33;;;;;;;;;;5069610;28;20530;-76
2022/03/14 08:05:55;;;;;;;0.40;0.40;;;;;;;;;;5065402;28;20203;-75
2022/03/14 08:08:23;;;;;;;0.63;0.43;;;;;;;;;;5054353;28;20211;-76
2022/03/14 08:10:50;;;;;;;2.77;1.33;;;;;;;;;;5054715;28;20206;-78
2022/03/14 08:13:19;;;;;;;2.83;1.50;;;;;;;;;;5054995;28;20306;-76
2022/03/14 08:15:46;;;;;;;1.00;1.00;;;;;;;;;;5065218;28;20234;-78
2022/03/14 08:18:14;;;;;;;1.30;1.20;;;;;;;;;;5060421;28;20733;-77
2022/03/14 08:20:42;;;;;;;1.57;1.47;;;;;;;;;;5063505;28;20206;-78
2022/03/14 08:23:10;;;;;;;1.43;1.30;;;;;;;;;;5056799;28;20688;-79
2022/03/14 08:25:38;;;;;;;2.67;1.83;;;;;;;;;;5054667;28;20206;-77
2022/03/14 08:28:06;;;;;;;1.70;1.33;;;;;;;;;;5054027;28;20302;-77
2022/03/14 08:30:33;;;;;;;1.80;0.87;;;;;;;;;;5053770;28;20226;-79
2022/03/14 08:33:00;;;;;;;1.43;1.33;;;;;;;;;;5054029;28;20735;-79
2022/03/14 08:35:29;;;;;;;2.63;0.30;;;;;;;;;;5053983;28;20207;-79
2022/03/14 08:37:56;;;;;;;0.23;0.23;;;;;;;;;;5053180;28;20691;-78
2022/03/14 08:40:26;;;;;;;0.87;0.87;;;;;;;;;;5053929;28;20202;-74
2022/03/14 08:42:54;;;;;;;0.70;0.33;;;;;;;;;;5071400;28;20322;-79
2022/03/14 08:45:22;;;;;;;0.43;0.43;;;;;;;;;;5062984;28;20691;-79
2022/03/14 08:47:49;;;;;;;2.00;1.90;;;;;;;;;;5065591;28;20200;-77
2022/03/14 08:50:17;;;;;;;0.00;0.00;;;;;;;;;;5054589;28;20199;-77
2022/03/14 08:52:46;;;;;;;1.63;0.67;;;;;;;;;;5069474;28;20199;-77
2022/03/14 08:55:14;;;;;;;0.43;0.43;;;;;;;;;;5073573;28;20207;-77
2022/03/14 08:57:44;;;;;;;0.77;0.77;;;;;;;;;;5073247;28;20593;-77
2022/03/14 09:00:12;;;;;;;0.40;0.40;;;;;;;;;;5067500;28;20297;-78
2022/03/14 09:02:40;;;;;;;0.57;0.57;;;;;;;;;;5069647;28;20203;-77
2022/03/14 09:05:08;;;;;;;1.17;0.60;;;;;;;;;;5069444;28;20203;-77
2022/03/14 09:07:36;;;;;;;0.70;0.70;;;;;;;;;;5068964;28;20199;-77
2022/03/14 09:10:04;;;;;;;0.97;0.93;;;;;;;;;;5069910;28;20294;-73
2022/03/14 09:12:33;;;;;;;1.43;1.03;;;;;;;;;;5068816;28;20191;-78
2022/03/14 09:15:03;;;;;;;2.80;0.77;;;;;;;;;;5069674;28;20206;-77
2022/03/14 09:17:32;;;;;;;0.73;0.73;;;;;;;;;;5067568;28;20233;-76
2022/03/14 09:20:00;;;;;;;0.73;0.73;;;;;;;;;;5069204;28;20202;-74
2022/03/14 09:22:28;;;;;;;0.87;0.87;;;;;;;;;;5068711;28;20209;-76
2022/03/14 09:24:55;;;;;;;1.17;1.07;;;;;;;;;;5069133;28;20199;-72
2022/03/14 09:27:23;;;;;;;0.50;0.50;;;;;;;;;;5063764;28;20223;-74
2022/03/14 09:29:51;;;;;;;1.50;1.00;;;;;;;;;;5067618;28;20195;-77
2022/03/14 09:32:20;;;;;;;1.17;0.87;;;;;;;;;;5068860;28;20203;-77
2022/03/14 09:34:48;;;;;;;0.50;0.50;;;;;;;;;;5068564;28;20211;-78
2022/03/14 09:37:15;;;;;;;9.00;2.13;;;;;;;;;;5067091;28;20696;-73
2022/03/14 09:39:43;;;;;;;1.67;0.67;;;;;;;;;;5064701;28;20747;-75
2022/03/14 09:42:12;;;;;;;1.50;1.40;;;;;;;;;;5066686;28;20203;-76
2022/03/14 09:44:40;;;;;;;1.47;1.37;;;;;;;;;;5067711;28;20231;-76
2022/03/14 09:47:08;;;;;;;3.23;2.70;;;;;;;;;;5067749;28;20213;-76
2022/03/14 09:49:37;;;;;;;1.50;1.23;;;;;;;;;;5065654;28;20217;-75
2022/03/14 09:52:05;;;;;;;4.37;2.33;;;;;;;;;;5067402;28;20587;-77
2022/03/14 09:54:32;;;;;;;2.37;2.07;;;;;;;;;;5067237;28;20278;-76
2022/03/14 09:57:01;;;;;;;4.27;3.97;;;;;;;;;;5069747;28;20239;-78
2022/03/14 09:59:28;;;;;;;1.67;1.13;;;;;;;;;;5070668;28;20201;-77
2022/03/14 10:01:56;;;;;;;3.10;1.53;;;;;;;;;;5060265;28;20575;-78
2022/03/14 10:04:24;;;;;;;1.17;1.17;;;;;;;;;;5074004;28;20195;-79
2022/03/14 10:06:54;;;;;;;0.73;0.73;;;;;;;;;;5052845;28;20200;-77
2022/03/14 10:09:21;;;;;;;1.60;1.50;;;;;;;;;;5062952;28;20202;-77
2022/03/14 10:11:49;;;;;;;2.67;2.47;;;;;;;;;;5068469;28;20277;-71
2022/03/14 10:14:19;;;;;;;1.60;1.37;;;;;;;;;;5055973;28;20211;-79
2022/03/14 10:16:47;;;;;;;1.30;1.20;;;;;;;;;;5065758;28;20227;-78
2022/03/14 10:19:20;;;;;;;2.07;1.97;;;;;;;;;;5064797;28;20563;-79
2022/03/14 10:21:50;;;;;;;0.20;0.20;;;;;;;;;;5055493;28;20201;-77
2022/03/14 10:24:22;;;;;;;2.90;2.27;;;;;;;;;;5071067;28;20216;-78
2022/03/14 10:26:50;;;;;;;7.93;1.97;;;;;;;;;;5063796;28;20242;-77
2022/03/14 10:29:18;;;;;;;28.77;4.10;;;;;;;;;;5067601;28;20573;-78
2022/03/14 10:31:46;;;;;;;2.50;1.57;;;;;;;;;;5068129;28;20202;-78
2022/03/14 10:34:16;;;;;;;2.57;2.30;;;;;;;;;;5068219;28;20207;-77
2022/03/14 10:36:45;;;;;;;1.93;1.80;;;;;;;;;;5067532;28;20280;-77
2022/03/14 10:39:13;;;;;;;2.23;1.93;;;;;;;;;;5067017;28;20320;-77
2022/03/14 10:41:42;;;;;;;2.67;2.30;;;;;;;;;;5068256;28;20298;-77
2022/03/14 10:44:10;;;;;;;3.27;1.53;;;;;;;;;;5066030;28;20231;-77
2022/03/14 10:46:40;;;;;;;3.60;1.53;;;;;;;;;;5067489;28;20294;-76
2022/03/14 10:49:10;;;;;;;1.40;1.30;;;;;;;;;;5067607;28;20195;-76
2022/03/14 10:51:52;;;;;;;0.77;0.77;;;;;;;;;;5066688;28;20591;-73
2022/03/14 10:54:19;;;;;;;1.67;1.43;;;;;;;;;;5067458;28;20214;-78
2022/03/14 10:57:02;;;;;;;3.47;3.13;;;;;;;;;;5067259;28;20576;-77
2022/03/14 10:59:38;;;;;;;5.33;1.87;;;;;;;;;;5067324;28;20194;-77
2022/03/14 11:02:06;;;;;;;1.80;1.70;;;;;;;;;;5067966;28;20207;-77
2022/03/14 11:04:43;;;;;;;1.00;0.87;;;;;;;;;;5068234;28;20202;-76
2022/03/14 11:07:11;;;;;;;0.47;0.47;;;;;;;;;;5064816;28;20218;-75
2022/03/14 11:09:39;;;;;;;1.03;0.93;;;;;;;;;;5068453;28;20207;-76
2022/03/14 11:12:07;;;;;;;3.30;2.47;;;;;;;;;;5068435;28;20199;-76
2022/03/14 11:14:35;;;;;;;1.47;1.37;;;;;;;;;;5064366;28;20235;-77
2022/03/14 11:17:15;;;;;;;0.77;0.77;;;;;;;;;;5064323;28;20227;-76
2022/03/14 11:19:42;;;;;;;1.87;1.20;;;;;;;;;;5068217;28;20762;-78
2022/03/14 11:22:11;;;;;;;4.47;2.67;;;;;;;;;;5070292;28;20289;-75
2022/03/14 11:24:43;;;;;;;16.37;3.30;;;;;;;;;;5071236;28;20568;-77
2022/03/14 11:27:18;;;;;;;2.67;1.60;;;;;;;;;;5063013;28;20660;-77
2022/03/14 11:29:45;;;;;;;1.33;0.97;;;;;;;;;;5058595;28;20698;-76
2022/03/14 11:32:15;;;;;;;0.63;0.63;;;;;;;;;;5063740;28;20195;-76
2022/03/14 11:34:43;;;;;;;0.57;0.57;;;;;;;;;;5065280;28;20891;-77
2022/03/14 11:37:12;;;;;;;2.90;1.13;;;;;;;;;;5064981;28;20219;-76
2022/03/14 11:39:40;;;;;;;2.20;1.73;;;;;;;;;;5061683;28;20195;-77
2022/03/14 11:42:08;;;;;;;0.67;0.67;;;;;;;;;;5064038;28;20572;-74
2022/03/14 11:44:36;;;;;;;2.77;1.03;;;;;;;;;;5065186;28;20242;-76
2022/03/14 11:47:05;;;;;;;1.20;1.13;;;;;;;;;;5064035;28;20205;-77
2022/03/14 11:49:35;;;;;;;7.00;1.50;;;;;;;;;;5061278;28;20207;-75
2022/03/14 11:52:10;;;;;;;0.70;0.70;;;;;;;;;;5064078;28;20579;-75
2022/03/14 11:54:39;;;;;;;4.00;1.37;;;;;;;;;;5063779;28;20722;-77
2022/03/14 11:57:07;;;;;;;1.00;0.87;;;;;;;;;;5062839;28;20229;-77
2022/03/14 11:59:35;;;;;;;0.80;0.77;;;;;;;;;;5061279;28;20206;-76
2022/03/14 12:02:05;;;;;;;0.97;0.80;;;;;;;;;;5064943;28;20208;-76
2022/03/14 12:04:33;;;;;;;0.37;0.37;;;;;;;;;;5062235;28;20192;-77
2022/03/14 12:07:07;;;;;;;3.27;2.30;;;;;;;;;;5064189;28;20196;-77
2022/03/14 12:09:45;;;;;;;2.63;0.90;;;;;;;;;;5063080;28;20648;-78
2022/03/14 12:12:31;;;;;;;3.50;1.20;;;;;;;;;;5064742;28;20632;-76
2022/03/14 12:14:59;;;;;;;0.57;0.57;;;;;;;;;;5064157;28;20226;-76
2022/03/14 12:17:28;;;;;;;1.00;0.90;;;;;;;;;;5057823;28;20226;-74
2022/03/14 12:20:00;;;;;;;1.50;1.13;;;;;;;;;;5061725;28;20664;-76
2022/03/14 12:22:37;;;;;;;1.67;0.93;;;;;;;;;;5064180;28;20570;-75
2022/03/14 12:25:06;;;;;;;1.57;1.47;;;;;;;;;;5061747;28;20194;-75
2022/03/14 12:27:35;;;;;;;1.07;0.83;;;;;;;;;;5068655;28;20297;-76
2022/03/14 12:30:06;;;;;;;5.80;1.80;;;;;;;;;;5079963;28;20530;-77
2022/03/14 12:32:37;;;;;;;0.20;0.20;;;;;;;;;;5079705;28;20218;-73
2022/03/14 12:35:09;;;;;;;5.40;1.57;;;;;;;;;;5086425;28;20505;-70
2022/03/14 12:37:46;;;;;;;1.27;0.80;;;;;;;;;;5080113;28;20219;-71
2022/03/14 12:40:16;;;;;;;0.70;0.30;;;;;;;;;;5088057;28;20195;-70
2022/03/14 12:42:45;;;;;;;0.63;0.30;;;;;;;;;;5083466;28;20205;-72
2022/03/14 12:45:24;;;;;;;1.67;0.97;;;;;;;;;;5083896;28;20231;-71
2022/03/14 12:47:55;;;;;;;0.20;0.10;;;;;;;;;;5079609;28;20213;-71
2022/03/14 12:50:41;;;;;;;0.43;0.32;;;;;;;;;;5083203;28;20250;-69
2022/03/14 12:53:09;;;;;;;0.75;0.75;;;;;;;;;;5088964;28;20250;-75
2022/03/14 12:55:37;;;;;;;1.40;0.63;;;;;;;;;;5087637;28;20209;-73
2022/03/14 12:58:05;;;;;;;0.37;0.37;;;;;;;;;;5086669;28;20215;-74
2022/03/14 13:00:38;;;;;;;1.57;0.70;;;;;;;;;;5079687;28;20223;-78
2022/03/14 13:03:06;;;;;;;2.13;0.77;;;;;;;;;;5075253;28;20200;-78
2022/03/14 13:05:34;;;;;;;3.73;0.43;;;;;;;;;;5080947;28;20187;-76
2022/03/14 13:08:02;;;;;;;0.40;0.40;;;;;;;;;;5087718;28;20220;-73
2022/03/14 13:10:41;;;;;;;0.00;0.00;;;;;;;;;;5087102;28;20195;-77
2022/03/14 13:13:10;;;;;;;1.47;0.53;;;;;;;;;;5087880;28;20202;-74
2022/03/14 13:15:38;;;;;;;2.70;0.33;;;;;;;;;;5086850;28;20206;-76
2022/03/14 13:18:17;;;;;;;3.20;1.00;;;;;;;;;;5088249;28;20222;-73
2022/03/14 13:20:45;;;;;;;1.03;1.03;;;;;;;;;;5089521;28;20187;-72
2022/03/14 13:23:16;;;;;;;7.23;0.37;;;;;;;;;;5088347;28;20210;-73
2022/03/14 13:25:49;;;;;;;1.40;0.80;;;;;;;;;;5087324;28;20171;-70
2022/03/14 13:28:27;;;;;;;0.37;0.37;;;;;;;;;;5088611;28;20217;-70
2022/03/14 13:30:55;;;;;;;3.00;1.00;;;;;;;;;;5088871;28;20280;-74
2022/03/14 13:33:26;;;;;;;0.60;0.30;;;;;;;;;;5088238;28;20191;-70
2022/03/14 13:35:54;;;;;;;0.30;0.30;;;;;;;;;;5080286;28;20236;-76
2022/03/14 13:38:32;;;;;;;1.80;0.77;;;;;;;;;;5081950;28;20278;-70
2022/03/14 13:41:00;;;;;;;1.60;0.30;;;;;;;;;;5075785;28;20195;-76
2022/03/14 13:43:28;;;;;;;0.30;0.30;;;;;;;;;;5063709;28;20207;-72
2022/03/14 13:46:10;;;;;;;2.27;0.20;;;;;;;;;;5061742;28;20218;-74
2022/03/14 13:48:38;;;;;;;0.47;0.20;;;;;;;;;;5056143;28;20207;-75
2022/03/14 13:51:09;;;;;;;0.00;0.00;;;;;;;;;;5061628;28;20218;-75
2022/03/14 13:53:45;;;;;;;0.20;0.20;;;;;;;;;;5062424;28;20210;-75
2022/03/14 13:56:14;;;;;;;0.40;0.20;;;;;;;;;;5059953;28;20281;-75
2022/03/14 13:58:52;;;;;;;0.00;0.00;;;;;;;;;;5061944;28;20280;-75
2022/03/14 14:01:19;;;;;;;0.20;0.20;;;;;;;;;;5060017;28;20288;-75
2022/03/14 14:03:47;;;;;;;1.52;0.52;;;;;;;;;;5058920;28;20206;-76
2022/03/14 14:06:15;;;;;;;0.00;0.00;;;;;;;;;;5063805;28;20579;-78
2022/03/14 14:08:43;;;;;;;0.00;0.00;;;;;;;;;;5061695;28;20534;-74
2022/03/14 14:11:10;;;;;;;0.00;0.00;;;;;;;;;;5062572;28;20199;-75
2022/03/14 14:13:49;;;;;;;0.00;0.00;;;;;;;;;;5061680;28;20207;-76
2022/03/14 14:16:22;;;;;;;0.10;0.10;;;;;;;;;;5059242;28;20205;-74
2022/03/14 14:19:04;;;;;;;1.73;0.10;;;;;;;;;;5061720;28;20292;-73
2022/03/14 14:21:31;;;;;;;0.00;0.00;;;;;;;;;;5061318;28;20580;-73
2022/03/14 14:23:59;;;;;;;0.00;0.00;;;;;;;;;;5061595;28;20202;-76
2022/03/14 14:26:33;;;;;;;0.00;0.00;;;;;;;;;;5058646;28;20199;-76
2022/03/14 14:29:02;;;;;;;0.00;0.00;;;;;;;;;;5058040;28;20198;-75
2022/03/14 14:31:29;;;;;;;0.10;0.00;;;;;;;;;;5060949;28;20199;-75
2022/03/14 14:33:56;;;;;;;0.00;0.00;;;;;;;;;;5060690;28;20209;-76
2022/03/14 14:36:24;;;;;;;0.03;0.03;;;;;;;;;;5059548;28;20199;-74
2022/03/14 14:38:51;;;;;;;1.90;0.10;;;;;;;;;;5061811;28;20660;-76
2022/03/14 14:41:18;;;;;;;0.93;0.93;;;;;;;;;;5060557;28;20566;-75
2022/03/14 14:43:46;;;;;;;0.00;0.00;;;;;;;;;;5058891;28;20199;-73
2022/03/14 14:46:15;;;;;;;0.00;0.00;;;;;;;;;;5058512;28;20209;-79
2022/03/14 14:48:44;;;;;;;0.00;0.00;;;;;;;;;;5060566;28;20299;-77
2022/03/14 14:51:12;;;;;;;0.33;0.30;;;;;;;;;;5060908;28;20197;-76
2022/03/14 14:53:41;;;;;;;0.00;0.00;;;;;;;;;;5059884;28;20683;-78